createdAt,value
2023-04-05T00:02:19.462Z,99982.44
2023-04-05T00:04:54.397Z,99982.44
2023-04-05T00:07:26.177Z,99984.16
2023-04-05T00:10:11.021Z,99983.34
2023-04-05T00:12:59.128Z,99978.97
2023-04-05T00:15:33.832Z,99985.81
2023-04-05T00:18:04.962Z,99986.59
2023-04-05T00:20:37.187Z,99979.69
2023-04-05T00:23:26.215Z,99979.66
2023-04-05T00:26:19.275Z,99978.00
2023-04-05T00:29:08.219Z,99984.88
2023-04-05T00:31:37.930Z,99971.09
2023-04-05T00:34:13.477Z,99971.03
2023-04-05T00:36:48.025Z,99983.94
2023-04-05T00:39:25.698Z,99983.00
2023-04-05T00:41:55.761Z,99987.22
2023-04-05T00:44:25.013Z,99991.44
2023-04-05T00:46:54.280Z,99985.41
2023-04-05T00:49:23.914Z,99970.72
2023-04-05T00:51:53.245Z,99991.34
2023-04-05T00:54:22.527Z,99992.13
2023-04-05T00:57:01.221Z,100003.25
2023-04-05T00:59:31.182Z,100003.19
2023-04-05T01:02:21.058Z,100008.22
2023-04-05T01:05:01.825Z,100003.16
2023-04-05T01:07:44.838Z,100017.63
2023-04-05T01:10:18.758Z,100011.56
2023-04-05T01:12:50.922Z,100017.47
2023-04-05T01:15:20.712Z,100009.75
2023-04-05T01:17:50.091Z,100008.91
2023-04-05T01:20:25.724Z,100015.75
2023-04-05T01:23:30.643Z,100002.88
2023-04-05T01:26:38.621Z,100014.03
2023-04-05T01:29:37.572Z,100003.69
2023-04-05T01:32:26.738Z,99998.59
2023-04-05T01:35:03.782Z,99989.19
2023-04-05T01:37:41.132Z,100010.69
2023-04-05T01:40:12.114Z,100018.22
2023-04-05T01:42:42.624Z,100009.56
2023-04-05T01:45:12.292Z,100002.66
2023-04-05T01:47:43.835Z,100005.22
2023-04-05T01:50:20.461Z,100011.31
2023-04-05T01:52:49.675Z,100001.09
2023-04-05T01:55:19.051Z,99988.16
2023-04-05T01:57:54.069Z,100008.66
2023-04-05T02:00:23.719Z,100007.81
2023-04-05T02:03:01.561Z,100000.13
2023-04-05T02:05:30.864Z,99995.84
2023-04-05T02:07:59.903Z,99994.94
2023-04-05T02:13:04.473Z,100016.53
2023-04-05T02:15:33.918Z,100017.25
2023-04-05T02:18:05.288Z,100017.28
2023-04-05T02:20:34.847Z,100018.84
2023-04-05T02:23:04.416Z,100024.00
2023-04-05T02:25:47.045Z,100031.63
2023-04-05T02:28:16.212Z,100017.00
2023-04-05T02:30:45.311Z,100016.16
2023-04-05T02:33:21.947Z,100035.97
2023-04-05T02:35:51.943Z,100031.59
2023-04-05T02:41:02.893Z,100031.66
2023-04-05T02:43:34.934Z,100042.69
2023-04-05T02:46:04.268Z,100031.47
2023-04-05T02:48:41.542Z,100019.47
2023-04-05T02:51:12.165Z,100024.44
2023-04-05T02:53:47.877Z,100025.34
2023-04-05T02:56:18.762Z,100026.25
2023-04-05T02:58:51.142Z,100042.25
2023-04-05T03:01:26.555Z,100028.50
2023-04-05T03:03:58.210Z,100044.78
2023-04-05T03:06:32.596Z,100047.28
2023-04-05T03:11:39.470Z,100035.22
2023-04-05T03:14:08.731Z,100049.03
2023-04-05T03:16:55.916Z,100042.09
2023-04-05T03:19:36.144Z,100041.94
2023-04-05T03:22:15.809Z,100040.31
2023-04-05T03:24:46.294Z,100048.16
2023-04-05T03:27:18.713Z,100066.09
2023-04-05T03:30:08.047Z,100071.31
2023-04-05T03:32:49.170Z,100068.75
2023-04-05T03:35:35.693Z,100063.75
2023-04-05T03:38:07.514Z,100082.56
2023-04-05T03:40:38.814Z,100074.88
2023-04-05T03:43:11.048Z,100077.38
2023-04-05T03:45:40.660Z,100075.78
2023-04-05T03:48:10.117Z,100072.38
2023-04-05T03:50:41.531Z,100089.53
2023-04-05T03:53:11.006Z,100092.16
2023-04-05T03:55:43.006Z,100081.88
2023-04-05T03:58:12.555Z,100099.81
2023-04-05T04:00:42.884Z,100082.75
2023-04-05T04:03:22.617Z,100097.31
2023-04-05T04:08:40.490Z,100098.34
2023-04-05T04:11:23.359Z,100107.69
2023-04-05T04:13:53.376Z,100106.84
2023-04-05T04:16:45.946Z,100108.59
2023-04-05T04:19:34.646Z,100110.22
2023-04-05T04:22:12.949Z,100101.69
2023-04-05T04:25:09.496Z,100098.44
2023-04-05T04:27:46.284Z,100107.00
2023-04-05T04:30:23.289Z,100111.28
2023-04-05T04:33:17.146Z,100112.22
2023-04-05T04:36:01.591Z,100129.44
2023-04-05T04:38:59.304Z,100108.03
2023-04-05T04:41:50.207Z,100117.41
2023-04-05T04:44:37.820Z,100122.38
2023-04-05T04:47:17.206Z,100109.31
2023-04-05T04:50:00.212Z,100134.31
2023-04-05T04:52:38.269Z,100117.22
2023-04-05T04:55:15.177Z,100116.22
2023-04-05T04:57:48.009Z,100121.22
2023-04-05T05:00:18.006Z,100118.69
2023-04-05T05:02:49.059Z,100125.47
2023-04-05T05:05:32.293Z,100112.69
2023-04-05T05:08:11.967Z,100138.09
2023-04-05T05:10:45.155Z,100114.25
2023-04-05T05:13:19.510Z,100111.53
2023-04-05T05:15:48.780Z,100139.88
2023-04-05T05:18:23.143Z,100133.22
2023-04-05T05:20:53.832Z,100131.50
2023-04-05T05:23:29.479Z,100134.69
2023-04-05T05:26:01.941Z,100154.41
2023-04-05T05:28:31.252Z,100140.41
2023-04-05T05:31:00.862Z,100130.91
2023-04-05T05:33:30.237Z,100144.03
2023-04-05T05:36:05.379Z,100147.63
2023-04-05T05:38:34.750Z,100145.31
2023-04-05T05:41:06.238Z,100144.41
2023-04-05T05:43:35.515Z,100160.84
2023-04-05T05:46:04.952Z,100141.53
2023-04-05T05:48:39.278Z,100150.88
2023-04-05T05:51:14.726Z,100168.19
2023-04-05T05:53:49.022Z,100165.72
2023-04-05T05:56:20.632Z,100167.59
2023-04-05T06:01:27.745Z,100171.34
2023-04-05T06:03:57.174Z,100175.75
2023-04-05T06:06:34.400Z,100163.88
2023-04-05T06:09:05.115Z,100159.63
2023-04-05T06:11:38.916Z,100165.31
2023-04-05T06:14:16.984Z,100179.03
2023-04-05T06:16:46.438Z,100159.22
2023-04-05T06:19:15.693Z,100156.56
2023-04-05T06:21:51.352Z,100151.41
2023-04-05T06:24:20.830Z,100176.25
2023-04-05T06:26:57.056Z,100173.69
2023-04-05T06:29:26.688Z,100176.44
2023-04-05T06:31:58.069Z,100190.28
2023-04-05T06:34:32.434Z,100194.13
2023-04-05T06:37:02.555Z,100190.81
2023-04-05T06:39:32.048Z,100194.31
2023-04-05T06:42:03.313Z,100191.81
2023-04-05T06:44:41.108Z,100177.25
2023-04-05T06:47:15.651Z,100191.94
2023-04-05T06:49:45.088Z,100193.69
2023-04-05T06:52:14.426Z,100192.16
2023-04-05T06:54:48.590Z,100191.34
2023-04-05T06:57:20.052Z,100182.00
2023-04-05T06:59:54.204Z,100188.00
2023-04-05T07:02:28.761Z,100188.94
2023-04-05T07:05:04.415Z,100182.84
2023-04-05T07:07:34.529Z,100179.50
2023-04-05T07:10:10.635Z,100195.88
2023-04-05T07:12:48.352Z,100193.31
2023-04-05T07:15:18.032Z,100187.34
2023-04-05T07:17:47.245Z,100187.41
2023-04-05T07:20:16.759Z,100194.22
2023-04-05T07:25:27.334Z,100177.13
2023-04-05T07:30:34.274Z,100190.91
2023-04-05T07:33:03.524Z,100192.72
2023-04-05T07:35:32.894Z,100189.28
2023-04-05T07:38:22.390Z,100168.66
2023-04-05T07:40:53.295Z,100198.75
2023-04-05T07:43:25.404Z,100189.28
2023-04-05T07:46:07.838Z,100185.84
2023-04-05T07:48:37.267Z,100183.25
2023-04-05T07:51:08.162Z,100160.03
2023-04-05T07:53:38.398Z,100185.84
2023-04-05T07:56:08.575Z,100188.44
2023-04-05T07:58:41.761Z,100182.38
2023-04-05T08:01:16.108Z,100181.47
2023-04-05T08:03:45.328Z,100194.41
2023-04-05T08:06:17.357Z,100185.69
2023-04-05T08:08:47.542Z,100188.25
2023-04-05T08:11:19.244Z,100168.44
2023-04-05T08:13:50.983Z,100200.31
2023-04-05T08:19:17.717Z,100177.00
2023-04-05T08:21:47.075Z,100201.13
2023-04-05T08:24:16.289Z,100191.56
2023-04-05T08:27:01.029Z,100197.56
2023-04-05T08:29:32.305Z,100168.13
2023-04-05T08:32:01.518Z,100179.38
2023-04-05T08:34:30.808Z,100189.72
2023-04-05T08:37:01.547Z,100193.09
2023-04-05T08:39:37.410Z,100185.22
2023-04-05T08:42:13.580Z,100172.31
2023-04-05T08:44:47.260Z,100186.97
2023-04-05T08:47:25.560Z,100174.03
2023-04-05T08:49:55.519Z,100179.16
2023-04-05T08:52:24.771Z,100143.78
2023-04-05T08:57:40.846Z,100173.03
2023-04-05T09:00:15.265Z,100154.75
2023-04-05T09:02:46.890Z,100180.63
2023-04-05T09:05:18.786Z,100160.00
2023-04-05T09:07:48.817Z,100170.41
2023-04-05T09:10:25.837Z,100185.94
2023-04-05T09:12:55.470Z,100169.41
2023-04-05T09:15:32.146Z,100182.97
2023-04-05T09:18:02.763Z,100165.63
2023-04-05T09:20:35.268Z,100182.06
2023-04-05T09:23:05.469Z,100164.91
2023-04-05T09:25:45.191Z,100181.97
2023-04-05T09:28:14.601Z,100159.38
2023-04-05T09:30:49.016Z,100171.16
2023-04-05T09:33:21.918Z,100159.31
2023-04-05T09:35:57.672Z,100185.97
2023-04-05T09:38:47.208Z,100176.22
2023-04-05T09:41:21.603Z,100169.16
2023-04-05T09:43:50.814Z,100174.00
2023-04-05T09:46:42.025Z,100166.97
2023-04-05T09:49:11.214Z,100167.78
2023-04-05T09:51:41.055Z,100143.84
2023-04-05T09:54:18.597Z,100153.03
2023-04-05T09:56:58.003Z,100165.78
2023-04-05T09:59:28.009Z,100162.00
2023-04-05T10:01:59.566Z,100168.63
2023-04-05T10:04:28.890Z,100163.53
2023-04-05T10:06:58.426Z,100153.88
2023-04-05T10:09:31.021Z,100167.13
2023-04-05T10:12:01.932Z,100150.97
2023-04-05T10:14:36.243Z,100158.78
2023-04-05T10:17:14.518Z,100161.19
2023-04-05T10:19:57.391Z,100172.09
2023-04-05T10:22:35.181Z,100148.06
2023-04-05T10:25:16.480Z,100147.13
2023-04-05T10:27:50.290Z,100143.88
2023-04-05T10:30:20.488Z,100155.91
2023-04-05T10:33:12.547Z,100163.72
2023-04-05T10:35:57.340Z,100162.78
2023-04-05T10:38:28.646Z,100151.28
2023-04-05T10:41:07.766Z,100132.44
2023-04-05T10:43:39.585Z,100163.78
2023-04-05T10:46:08.869Z,100153.34
2023-04-05T10:48:50.445Z,100157.38
2023-04-05T10:51:25.888Z,100135.22
2023-04-05T10:53:56.772Z,100146.63
2023-04-05T10:56:27.601Z,100166.56
2023-04-05T10:58:58.466Z,100134.28
2023-04-05T11:01:28.980Z,100151.50
2023-04-05T11:04:13.561Z,100168.69
2023-04-05T11:06:57.894Z,100147.09
2023-04-05T11:09:27.925Z,100144.44
2023-04-05T11:12:02.546Z,100163.44
2023-04-05T11:14:39.019Z,100160.03
2023-04-05T11:17:26.578Z,100145.34
2023-04-05T11:20:07.704Z,100140.22
2023-04-05T11:22:37.088Z,100109.41
2023-04-05T11:25:09.066Z,100105.94
2023-04-05T11:27:40.936Z,100151.69
2023-04-05T11:30:11.705Z,100125.78
2023-04-05T11:32:47.222Z,100106.72
2023-04-05T11:35:22.907Z,100132.47
2023-04-05T11:38:10.371Z,100119.25
2023-04-05T11:40:43.080Z,100139.75
2023-04-05T11:43:19.009Z,100089.81
2023-04-05T11:45:48.488Z,100123.97
2023-04-05T11:48:17.621Z,100131.94
2023-04-05T11:50:51.095Z,100098.94
2023-04-05T11:53:31.651Z,100112.63
2023-04-05T11:56:17.298Z,100107.53
2023-04-05T11:58:46.727Z,100103.72
2023-04-05T12:01:16.256Z,100097.00
2023-04-05T12:03:45.857Z,100070.56
2023-04-05T12:06:17.033Z,100112.81
2023-04-05T12:08:50.286Z,100109.16
2023-04-05T12:11:26.890Z,100107.34
2023-04-05T12:14:02.634Z,100120.97
2023-04-05T12:16:32.612Z,100127.81
2023-04-05T12:19:02.560Z,100121.44
2023-04-05T12:21:34.398Z,100111.78
2023-04-05T12:24:03.411Z,100082.25
2023-04-05T12:26:34.364Z,100100.59
2023-04-05T12:29:06.554Z,100127.44
2023-04-05T12:31:40.603Z,100082.41
2023-04-05T12:36:48.452Z,100100.81
2023-04-05T12:39:19.070Z,100119.03
2023-04-05T12:41:58.793Z,100132.63
2023-04-05T12:44:34.945Z,100111.22
2023-04-05T12:52:28.809Z,100076.41
2023-04-05T12:54:58.094Z,100072.38
2023-04-05T12:57:33.270Z,100098.31
2023-04-05T13:00:02.555Z,100085.41
2023-04-05T13:05:10.086Z,100078.03
2023-04-05T13:07:46.827Z,100078.97
2023-04-05T13:10:16.377Z,100061.03
2023-04-05T13:12:45.865Z,100078.47
2023-04-05T13:15:16.134Z,100104.06
2023-04-05T13:17:49.386Z,100099.84
2023-04-05T13:20:19.467Z,100108.66
2023-04-05T13:22:50.779Z,100126.06
2023-04-05T13:25:20.180Z,100115.53
2023-04-05T13:27:49.312Z,100146.91
2023-04-05T13:30:25.285Z,100093.34
2023-04-05T13:32:54.605Z,100101.81
2023-04-05T13:35:23.939Z,100095.03
2023-04-05T13:38:03.339Z,100122.50
2023-04-05T13:40:33.858Z,100112.16
2023-04-05T13:43:03.100Z,100102.63
2023-04-05T13:45:32.386Z,100103.50
2023-04-05T13:48:16.796Z,100113.78
2023-04-05T13:50:45.974Z,100114.69
2023-04-05T13:55:52.597Z,100125.09
2023-04-05T13:58:22.123Z,100126.13
2023-04-05T14:00:51.676Z,100105.59
2023-04-05T14:03:21.131Z,100074.59
2023-04-05T14:05:52.342Z,100120.53
2023-04-05T14:08:25.147Z,100136.84
2023-04-05T14:10:54.580Z,100147.16
2023-04-05T14:13:24.559Z,100145.69
2023-04-05T14:15:54.038Z,100111.09
2023-04-05T14:21:03.418Z,100150.84
2023-04-05T14:23:34.880Z,100140.63
2023-04-05T14:28:47.348Z,100136.69
2023-04-05T14:31:16.679Z,100159.03
2023-04-05T14:33:46.173Z,100158.03
2023-04-05T14:36:22.413Z,100136.53
2023-04-05T14:38:53.637Z,100156.66
2023-04-05T14:41:22.971Z,100151.34
2023-04-05T14:43:54.861Z,100109.16
2023-04-05T14:46:29.292Z,100148.03
2023-04-05T14:48:58.612Z,100096.50
2023-04-05T14:51:28.988Z,100147.41
2023-04-05T14:56:40.422Z,100128.47
2023-04-05T14:59:09.784Z,100163.03
2023-04-05T15:01:41.425Z,100139.00
2023-04-05T15:04:10.878Z,100144.16
2023-04-05T15:06:40.190Z,100150.94
2023-04-05T15:09:12.433Z,100011.19
2023-04-05T15:11:47.671Z,100175.19
2023-04-05T15:14:30.761Z,100155.34
2023-04-05T15:17:07.102Z,100180.53
2023-04-05T15:19:36.687Z,100184.91
2023-04-05T15:22:11.139Z,100129.81
2023-04-05T15:27:23.589Z,100178.16
2023-04-05T15:29:52.997Z,100176.63
2023-04-05T15:32:22.511Z,100193.03
2023-04-05T15:34:56.990Z,100205.97
2023-04-05T15:37:27.712Z,100212.91
2023-04-05T15:40:00.670Z,100224.97
2023-04-05T15:42:32.075Z,100211.22
2023-04-05T15:45:01.361Z,100204.34
2023-04-05T15:47:30.989Z,100231.06
2023-04-05T15:50:00.338Z,100231.13
2023-04-05T15:52:34.736Z,100227.69
2023-04-05T15:55:06.982Z,100211.31
2023-04-05T15:57:36.430Z,100232.91
2023-04-05T16:00:08.349Z,100236.38
2023-04-05T16:02:39.463Z,100219.19
2023-04-05T16:05:09.364Z,100220.94
2023-04-05T16:07:43.655Z,100226.13
2023-04-05T16:10:15.365Z,100239.06
2023-04-05T16:12:44.868Z,100245.97
2023-04-05T16:15:14.737Z,100230.50
2023-04-05T16:17:44.167Z,100200.34
2023-04-05T16:20:19.449Z,100261.53
2023-04-05T16:22:48.924Z,100260.69
2023-04-05T16:25:20.173Z,100273.63
2023-04-05T16:27:49.687Z,100266.75
2023-04-05T16:30:19.289Z,100274.47
2023-04-05T16:32:49.134Z,100269.28
2023-04-05T16:35:18.576Z,100249.47
2023-04-05T16:37:48.393Z,100280.50
2023-04-05T16:40:20.824Z,100280.50
2023-04-05T16:42:50.256Z,100266.75
2023-04-05T16:45:19.715Z,100259.88
2023-04-05T16:47:59.237Z,100290.88
2023-04-05T16:50:28.867Z,100277.06
2023-04-05T16:52:58.761Z,100281.41
2023-04-05T16:55:30.133Z,100290.00
2023-04-05T16:57:59.602Z,100272.78
2023-04-05T17:00:39.669Z,100298.63
2023-04-05T17:03:09.151Z,100283.13
2023-04-05T17:05:38.636Z,100279.69
2023-04-05T17:08:08.502Z,100264.19
2023-04-05T17:10:45.777Z,100277.09
2023-04-05T17:13:21.186Z,100278.81
2023-04-05T17:15:50.533Z,100291.72
2023-04-05T17:18:19.747Z,100300.31
2023-04-05T17:20:49.094Z,100288.25
2023-04-05T17:23:18.389Z,100325.31
2023-04-05T17:25:49.922Z,100300.34
2023-04-05T17:28:19.265Z,100250.38
2023-04-05T17:30:48.957Z,100298.59
2023-04-05T17:33:18.412Z,100308.06
2023-04-05T17:35:49.392Z,100299.44
2023-04-05T17:38:23.849Z,100308.03
2023-04-05T17:41:00.077Z,100276.22
2023-04-05T17:46:05.417Z,100314.94
2023-04-05T17:48:34.702Z,100301.13
2023-04-05T17:51:07.081Z,100313.09
2023-04-05T17:53:36.695Z,100305.44
2023-04-05T17:56:08.279Z,100327.72
2023-04-05T17:58:37.884Z,100344.06
2023-04-05T18:01:07.302Z,100336.28
2023-04-05T18:03:36.864Z,100333.69
2023-04-05T18:06:06.866Z,100337.09
2023-04-05T18:08:37.953Z,100338.75
2023-04-05T18:11:11.986Z,100315.53
2023-04-05T18:13:41.980Z,100324.09
2023-04-05T18:16:11.411Z,100299.91
2023-04-05T18:18:40.906Z,100323.25
2023-04-05T18:21:10.440Z,100340.38
2023-04-05T18:23:39.799Z,100341.22
2023-04-05T18:26:16.271Z,100346.34
2023-04-05T18:28:46.046Z,100362.72
2023-04-05T18:31:21.088Z,100374.66
2023-04-05T18:33:59.964Z,100330.78
2023-04-05T18:36:34.193Z,100362.59
2023-04-05T18:39:04.858Z,100348.72
2023-04-05T18:41:44.480Z,100370.25
2023-04-05T18:44:14.055Z,100346.97
2023-04-05T18:46:44.760Z,100359.81
2023-04-05T18:49:15.397Z,100376.97
2023-04-05T18:54:20.384Z,100387.28
2023-04-05T18:56:51.644Z,100367.53
2023-04-05T18:59:22.572Z,100397.59
2023-04-05T19:01:51.932Z,100376.13
2023-04-05T19:04:33.759Z,100338.13
2023-04-05T19:07:09.086Z,100405.81
2023-04-05T19:09:38.549Z,100370.56
2023-04-05T19:12:10.088Z,100362.72
2023-04-05T19:14:39.724Z,100379.03
2023-04-05T19:17:09.377Z,100375.50
2023-04-05T19:19:38.886Z,100378.06
2023-04-05T19:22:10.914Z,100363.38
2023-04-05T19:24:42.336Z,100421.75
2023-04-05T19:27:13.542Z,100384.75
2023-04-05T19:29:42.969Z,100387.97
2023-04-05T19:32:12.211Z,100400.81
2023-04-05T19:34:41.614Z,100384.47
2023-04-05T19:37:11.101Z,100410.34
2023-04-05T19:39:40.545Z,100394.72
2023-04-05T19:42:16.875Z,100405.06
2023-04-05T19:44:54.467Z,100399.88
2023-04-05T19:47:29.108Z,100356.78
2023-04-05T19:50:00.118Z,100397.19
2023-04-05T19:52:42.104Z,100407.47
2023-04-05T19:55:33.175Z,100389.25
2023-04-05T19:58:14.557Z,100387.50
2023-04-05T20:00:52.342Z,100364.19
2023-04-05T20:03:36.331Z,100421.78
2023-04-05T20:06:08.767Z,100412.03
2023-04-05T20:08:45.091Z,100395.72
2023-04-05T20:11:17.253Z,100411.13
2023-04-05T20:13:51.025Z,100399.19
2023-04-05T20:16:25.678Z,100401.53
2023-04-05T20:18:56.080Z,100394.63
2023-04-05T20:21:31.905Z,100423.84
2023-04-05T20:26:38.214Z,100395.34
2023-04-05T20:29:11.606Z,100422.66
2023-04-05T20:31:41.384Z,100406.34
2023-04-05T20:34:20.230Z,100418.31
2023-04-05T20:36:56.469Z,100447.56
2023-04-05T20:39:26.373Z,100437.28
2023-04-05T20:41:56.216Z,100385.50
2023-04-05T20:44:28.155Z,100400.09
2023-04-05T20:46:58.716Z,100452.25
2023-04-05T20:49:28.660Z,100433.38
2023-04-05T20:52:10.725Z,100436.72
2023-04-05T20:54:40.203Z,100410.63
2023-04-05T20:57:09.562Z,100438.19
2023-04-05T21:02:26.470Z,100441.56
2023-04-05T21:05:02.459Z,100456.19
2023-04-05T21:07:33.940Z,100450.00
2023-04-05T21:12:55.526Z,100434.56
2023-04-05T21:15:34.250Z,100444.50
2023-04-05T21:18:10.660Z,100441.88
2023-04-05T21:20:40.935Z,100418.75
2023-04-05T21:23:17.519Z,100459.91
2023-04-05T21:25:46.887Z,100436.63
2023-04-05T21:28:16.454Z,100438.97
2023-04-05T21:33:33.628Z,100464.63
2023-04-05T21:36:03.169Z,100468.06
2023-04-05T21:38:32.804Z,100415.94
2023-04-05T21:41:02.232Z,100441.59
2023-04-05T21:43:31.431Z,100456.13
2023-04-05T21:46:02.684Z,100429.38
2023-04-05T21:48:41.752Z,100450.91
2023-04-05T21:51:11.077Z,100429.47
2023-04-05T21:53:40.285Z,100443.94
2023-04-05T21:56:16.361Z,100486.78
2023-04-05T21:58:45.819Z,100433.63
2023-04-05T22:01:22.374Z,100461.09
2023-04-05T22:03:52.007Z,100432.66
2023-04-05T22:06:21.294Z,100438.56
2023-04-05T22:08:57.873Z,100462.34
2023-04-05T22:11:36.765Z,100421.28
2023-04-05T22:14:07.721Z,100457.34
2023-04-05T22:16:39.142Z,100454.88
2023-04-05T22:19:11.351Z,100409.41
2023-04-05T22:21:41.113Z,100432.47
2023-04-05T22:24:11.034Z,100446.06
2023-04-05T22:26:41.021Z,100472.84
2023-04-05T22:29:10.741Z,100429.59
2023-04-05T22:31:47.861Z,100446.72
2023-04-05T22:34:17.594Z,100470.81
2023-04-05T22:36:47.310Z,100453.63
2023-04-05T22:39:16.828Z,100469.19
2023-04-05T22:41:46.125Z,100412.91
2023-04-05T22:44:15.637Z,100461.25
2023-04-05T22:46:47.217Z,100475.13
2023-04-05T22:49:20.339Z,100467.97
2023-04-05T22:51:49.686Z,100441.44
2023-04-05T22:54:18.960Z,100444.03
2023-04-05T22:56:49.504Z,100487.50
2023-04-05T22:59:19.040Z,100460.16
2023-04-05T23:01:50.260Z,100459.84
2023-04-05T23:04:19.824Z,100460.53
2023-04-05T23:06:54.114Z,100468.53
2023-04-05T23:09:34.450Z,100468.59
2023-04-05T23:12:04.603Z,100312.78
2023-04-05T23:14:40.423Z,100228.72
2023-04-05T23:17:14.926Z,100297.00
2023-04-05T23:19:44.989Z,100487.88
2023-04-05T23:22:14.495Z,100445.69
2023-04-05T23:24:43.760Z,100425.84
2023-04-05T23:27:13.272Z,100468.13
2023-04-05T23:29:42.404Z,100454.53
2023-04-05T23:32:19.782Z,100462.66
2023-04-05T23:34:49.429Z,100468.63
2023-04-05T23:37:19.277Z,100463.41
2023-04-05T23:39:48.578Z,100473.00
2023-04-05T23:42:18.008Z,100445.00
2023-04-05T23:44:47.779Z,100463.03
2023-04-05T23:47:19.049Z,100475.00
2023-04-05T23:49:48.357Z,100480.47
2023-04-05T23:52:17.982Z,100449.31
2023-04-05T23:54:47.344Z,100462.44
2023-04-05T23:57:16.763Z,100455.56
2023-04-05T23:59:52.020Z,100460.78
